EmailTwitter


Surface observations / United Kingdom / EGLC

Regions: Quebec | Canada | USA | Europe | France | UK | Elsewhere
Station
Display
Info & Location for EGLC | Help decoding METAR

Weather Conditions observed on 2017/10/17 at 18:20 UTC at LONDON CITY AIRP, UK (EGLC)

Temperature: 14.0 Celsius.

Dewpoint: 6.0 Celsius.

Relative Humidity: 59%

Winds: Southwest at 9 km/h or 5 knots.

Mean Sea level Pressure: 101.70 kilopascals.

Horizontal visibility: 6.21 statute miles or 9.94 kilometers.

Coded METAR:

EGLC 171820Z AUTO 24005KT 200V290 9999 NCD 14/06 Q1017=